Time;durP1;ratioP1;P1;durP2;ratioP2;P2;SDS_P1;SDS_P2;PMS_P1;PMS_P2;Temp;Humidity;BMP_temperature;BMP_pressure;BME280_temperature;BME280_humidity;BME280_pressure;Samples;Min_cycle;Max_cycle;Signal;HPM_P1;HPM_P2
2022/04/16 00:00:06;;;;;;;369.17;174.80;;;;;;;14.90;54.68;99505.25;340656;28;786;-72
2022/04/16 00:00:17;;;;;;;366.60;170.43;;;;;;;14.88;54.60;99512.41;340326;28;936;-72
2022/04/16 00:00:27;;;;;;;367.40;171.70;;;;;;;14.89;54.72;99508.84;343162;28;1290;-72
2022/04/16 00:00:38;;;;;;;368.50;176.10;;;;;;;14.90;54.94;99510.53;341785;28;1557;-72
2022/04/16 00:00:52;;;;;;;367.40;178.07;;;;;;;14.88;54.77;99507.13;341999;28;940;-72
2022/04/16 00:01:03;;;;;;;366.95;173.95;;;;;;;14.86;54.78;99509.00;341879;28;884;-72
2022/04/16 00:01:15;;;;;;;367.25;171.48;;;;;;;14.85;55.21;99507.31;344566;28;864;-72
2022/04/16 00:01:26;;;;;;;367.25;170.57;;;;;;;14.87;55.15;99505.44;342330;28;1977;-72
2022/04/16 00:01:37;;;;;;;367.70;171.25;;;;;;;14.87;54.99;99509.88;343257;28;952;-72
2022/04/16 00:01:49;;;;;;;368.90;172.00;;;;;;;14.88;55.22;99507.13;339828;28;2657;-72
2022/04/16 00:02:00;;;;;;;367.00;169.52;;;;;;;14.88;55.21;99511.56;342877;28;1606;-72
2022/04/16 00:02:11;;;;;;;366.90;169.73;;;;;;;14.87;55.12;99508.06;342980;28;1643;-72
2022/04/16 00:02:22;;;;;;;369.23;174.80;;;;;;;14.86;55.21;99511.66;342089;28;1389;-72
2022/04/16 00:02:32;;;;;;;368.70;173.40;;;;;;;14.82;55.26;99512.78;342082;28;824;-72
2022/04/16 00:02:45;;;;;;;368.83;174.13;;;;;;;14.83;55.61;99506.56;344469;28;824;-72
2022/04/16 00:02:55;;;;;;;367.15;173.20;;;;;;;14.83;55.54;99514.47;344041;28;892;-72
2022/04/16 00:03:07;;;;;;;367.70;169.68;;;;;;;14.83;55.60;99506.56;343404;28;1493;-72
2022/04/16 00:03:19;;;;;;;368.02;167.73;;;;;;;14.83;55.79;99503.94;344296;28;1030;-72
2022/04/16 00:03:29;;;;;;;366.23;166.95;;;;;;;14.83;55.59;99509.19;344727;28;857;-72
2022/04/16 00:03:41;;;;;;;365.27;166.20;;;;;;;14.81;55.68;99503.19;343094;28;1301;-72
2022/04/16 00:03:51;;;;;;;365.85;166.63;;;;;;;14.83;55.59;99509.19;343073;28;1311;-72
2022/04/16 00:04:02;;;;;;;366.67;168.40;;;;;;;14.84;55.55;99510.91;341962;28;825;-72
2022/04/16 00:04:12;;;;;;;365.48;169.38;;;;;;;14.85;55.38;99504.69;341899;28;897;-72
2022/04/16 00:04:23;;;;;;;365.53;168.50;;;;;;;14.86;55.71;99509.00;343256;28;810;-73
2022/04/16 00:04:33;;;;;;;364.38;168.13;;;;;;;14.84;55.39;99510.91;344188;28;1255;-72
2022/04/16 00:04:46;;;;;;;367.27;169.23;;;;;;;14.84;55.45;99508.25;344599;28;813;-72
2022/04/16 00:04:57;;;;;;;363.33;168.00;;;;;;;14.85;55.58;99507.31;343933;28;1681;-72
2022/04/16 00:05:07;;;;;;;361.15;166.70;;;;;;;14.85;55.45;99504.69;344051;28;1451;-72
2022/04/16 00:05:18;;;;;;;360.65;165.45;;;;;;;14.86;55.50;99509.00;340630;28;881;-72
2022/04/16 00:05:29;;;;;;;366.00;166.43;;;;;;;14.89;55.69;99510.63;343163;28;872;-72
2022/04/16 00:05:40;;;;;;;365.52;167.23;;;;;;;14.90;55.51;99509.69;342721;28;1287;-72
2022/04/16 00:05:54;;;;;;;365.43;167.33;;;;;;;14.89;55.52;99511.47;343480;28;868;-72
2022/04/16 00:06:04;;;;;;;361.55;167.45;;;;;;;14.87;55.71;99509.88;341941;28;995;-72
2022/04/16 00:06:15;;;;;;;360.90;167.15;;;;;;;14.88;55.97;99507.13;344396;28;1352;-72
2022/04/16 00:06:25;;;;;;;362.50;167.70;;;;;;;14.86;55.80;99511.66;345889;28;848;-72
2022/04/16 00:06:36;;;;;;;365.50;169.55;;;;;;;14.85;55.65;99507.31;345813;28;1623;-72
2022/04/16 00:06:47;;;;;;;365.65;171.40;;;;;;;14.85;55.61;99512.59;345201;28;891;-72
2022/04/16 00:06:57;;;;;;;364.87;169.93;;;;;;;14.86;55.60;99508.16;343043;28;1240;-72
2022/04/16 00:07:07;;;;;;;364.25;170.75;;;;;;;14.86;55.59;99514.28;343156;28;1597;-72
2022/04/16 00:07:18;;;;;;;366.47;170.80;;;;;;;14.89;55.67;99510.63;341359;28;1201;-72
2022/04/16 00:07:28;;;;;;;369.93;174.30;;;;;;;14.90;55.49;99507.03;341699;28;920;-72
2022/04/16 00:07:39;;;;;;;369.42;173.45;;;;;;;14.90;55.30;99507.91;343358;28;825;-72
2022/04/16 00:08:06;;;;;;;367.83;173.20;;;;;;;14.87;55.40;99509.88;342228;28;1007;-72
2022/04/16 00:08:16;;;;;;;365.42;167.93;;;;;;;14.85;55.64;99512.59;345707;28;780;-72
2022/04/16 00:08:27;;;;;;;363.90;169.10;;;;;;;14.86;55.61;99509.00;347357;28;788;-72
2022/04/16 00:08:38;;;;;;;364.13;171.13;;;;;;;14.87;55.44;99512.50;343153;28;824;-72
2022/04/16 00:08:48;;;;;;;364.00;172.65;;;;;;;14.83;55.66;99503.94;342735;28;1804;-72
2022/04/16 00:08:59;;;;;;;363.67;169.93;;;;;;;14.80;55.64;99506.75;342442;28;983;-72
2022/04/16 00:09:09;;;;;;;364.70;169.50;;;;;;;14.76;55.74;99509.66;343256;28;1242;-72
2022/04/16 00:09:20;;;;;;;364.92;168.07;;;;;;;14.73;55.61;99507.22;341884;28;1290;-73
2022/04/16 00:09:30;;;;;;;364.53;169.07;;;;;;;14.72;55.71;99510.81;341854;28;849;-72
2022/04/16 00:09:42;;;;;;;367.67;170.00;;;;;;;14.69;55.43;99511.84;342226;28;1014;-72
2022/04/16 00:09:53;;;;;;;368.42;169.70;;;;;;;14.70;55.61;99513.53;342995;28;1297;-72
2022/04/16 00:10:03;;;;;;;369.83;170.47;;;;;;;14.66;56.09;99512.00;343321;28;738;-72
2022/04/16 00:10:14;;;;;;;365.20;170.32;;;;;;;14.60;56.44;99509.75;341953;28;1019;-72
2022/04/16 00:10:24;;;;;;;364.83;169.17;;;;;;;14.56;56.41;99505.59;342766;28;1027;-72
2022/04/16 00:10:35;;;;;;;363.45;168.18;;;;;;;14.53;56.44;99511.03;343031;28;1132;-72
2022/04/16 00:10:45;;;;;;;365.05;168.75;;;;;;;14.54;56.29;99507.47;343195;28;920;-72
2022/04/16 00:10:56;;;;;;;364.63;170.93;;;;;;;14.54;56.60;99513.56;345712;28;1290;-72
2022/04/16 00:11:06;;;;;;;363.33;169.07;;;;;;;14.56;56.11;99513.50;347353;28;943;-72
2022/04/16 00:11:16;;;;;;;363.50;167.07;;;;;;;14.57;56.22;99509.91;343978;28;1731;-71
2022/04/16 00:11:27;;;;;;;364.93;165.47;;;;;;;14.56;56.73;99508.22;342965;28;1377;-71
2022/04/16 00:11:38;;;;;;;365.55;166.95;;;;;;;14.58;56.35;99514.25;340272;28;1457;-71
2022/04/16 00:11:49;;;;;;;365.85;169.85;;;;;;;14.57;56.43;99509.91;340485;28;846;-71
2022/04/16 00:11:59;;;;;;;367.08;169.13;;;;;;;14.59;56.47;99516.78;343303;28;844;-71
2022/04/16 00:12:09;;;;;;;366.67;171.50;;;;;;;14.57;56.58;99512.56;342981;28;1779;-71
2022/04/16 00:12:20;;;;;;;367.50;173.13;;;;;;;14.53;56.61;99513.66;344990;28;1286;-71
2022/04/16 00:12:31;;;;;;;366.58;174.80;;;;;;;14.52;56.66;99509.34;345965;28;1329;-71
2022/04/16 00:12:42;;;;;;;369.03;172.60;;;;;;;14.53;56.42;99505.75;344355;28;814;-72
2022/04/16 00:12:52;;;;;;;368.27;168.88;;;;;;;14.55;56.45;99509.16;341782;28;869;-72
2022/04/16 00:13:02;;;;;;;368.23;169.10;;;;;;;14.57;56.63;99515.19;343680;28;1303;-71
2022/04/16 00:13:14;;;;;;;366.33;170.13;;;;;;;14.58;56.32;99508.97;344317;28;1224;-71
2022/04/16 00:13:25;;;;;;;363.60;168.52;;;;;;;14.58;56.80;99520.38;343022;28;1437;-71
2022/04/16 00:13:35;;;;;;;365.57;167.13;;;;;;;14.57;56.78;99510.75;340510;28;860;-71
2022/04/16 00:13:50;;;;;;;366.88;168.63;;;;;;;14.56;56.70;99510.84;342657;28;1682;-71
2022/04/16 00:14:03;;;;;;;364.75;165.70;;;;;;;14.59;56.76;99510.69;344499;28;892;-71
2022/04/16 00:14:15;;;;;;;361.17;162.60;;;;;;;14.58;56.52;99514.25;342842;28;1434;-71
2022/04/16 00:14:25;;;;;;;362.75;161.98;;;;;;;14.57;56.35;99517.81;345612;28;1426;-71
2022/04/16 00:14:38;;;;;;;365.03;162.20;;;;;;;14.57;56.52;99515.19;344801;28;897;-71
2022/04/16 00:14:49;;;;;;;365.45;162.60;;;;;;;14.57;56.34;99512.56;341547;28;1307;-71
2022/04/16 00:15:00;;;;;;;367.35;164.32;;;;;;;14.58;56.64;99514.25;339065;29;1161;-71
2022/04/16 00:15:11;;;;;;;366.48;165.40;;;;;;;14.60;56.68;99517.63;343388;28;825;-71
2022/04/16 00:15:21;;;;;;;365.67;165.90;;;;;;;14.59;56.63;99510.69;341653;28;797;-71
2022/04/16 00:15:32;;;;;;;363.90;164.60;;;;;;;14.60;56.46;99515.84;344309;28;1126;-71
2022/04/16 00:15:46;;;;;;;364.10;164.80;;;;;;;14.62;56.88;99516.63;343457;28;1243;-71
2022/04/16 00:15:57;;;;;;;364.85;164.18;;;;;;;14.59;56.32;99510.69;343133;28;762;-71
2022/04/16 00:16:09;;;;;;;366.73;166.95;;;;;;;14.59;56.22;99515.94;343442;28;1518;-71
2022/04/16 00:16:19;;;;;;;370.35;170.75;;;;;;;14.59;56.47;99516.78;344234;28;956;-73
2022/04/16 00:16:29;;;;;;;367.77;169.70;;;;;;;14.61;56.46;99514.91;344571;28;925;-71
2022/04/16 00:16:40;;;;;;;364.17;165.73;;;;;;;14.62;56.38;99510.50;344338;28;891;-72
2022/04/16 00:16:50;;;;;;;365.47;164.37;;;;;;;14.61;56.24;99514.91;344589;28;924;-72
2022/04/16 00:17:01;;;;;;;364.90;162.70;;;;;;;14.59;56.53;99518.56;346028;28;789;-72
2022/04/16 00:17:11;;;;;;;367.23;164.63;;;;;;;14.56;56.26;99513.50;341740;28;1332;-71
2022/04/16 00:17:21;;;;;;;365.25;164.85;;;;;;;14.56;56.35;99516.13;342846;28;1439;-72
2022/04/16 00:17:32;;;;;;;364.63;165.43;;;;;;;14.48;56.55;99523.63;344414;28;1986;-72
2022/04/16 00:17:42;;;;;;;365.57;166.70;;;;;;;14.47;56.57;99521.94;341972;28;916;-72
2022/04/16 00:17:54;;;;;;;366.92;166.40;;;;;;;14.44;56.85;99514.19;341750;28;900;-72
2022/04/16 00:18:05;;;;;;;370.42;167.85;;;;;;;14.42;56.84;99526.59;341789;28;845;-72
2022/04/16 00:18:16;;;;;;;369.40;165.80;;;;;;;14.40;57.14;99517.91;342256;28;892;-72
2022/04/16 00:18:27;;;;;;;370.00;166.95;;;;;;;14.39;56.84;99521.47;341879;28;1178;-72
2022/04/16 00:18:37;;;;;;;366.93;166.00;;;;;;;14.38;57.17;99517.16;343166;28;735;-72
2022/04/16 00:18:48;;;;;;;367.67;168.05;;;;;;;14.39;56.79;99517.06;341643;28;834;-72
2022/04/16 00:18:58;;;;;;;368.67;168.27;;;;;;;14.35;57.18;99525.22;341123;28;1640;-72
2022/04/16 00:19:11;;;;;;;369.15;167.48;;;;;;;14.36;57.08;99525.13;340405;28;994;-72
2022/04/16 00:19:23;;;;;;;367.15;165.73;;;;;;;14.38;57.18;99522.41;340512;28;889;-72
2022/04/16 00:19:34;;;;;;;370.25;168.32;;;;;;;14.35;57.54;99515.53;340325;28;1081;-72
2022/04/16 00:19:44;;;;;;;370.75;168.27;;;;;;;14.32;57.61;99519.19;344344;28;845;-71
2022/04/16 00:19:55;;;;;;;368.43;166.93;;;;;;;14.31;57.37;99516.66;344359;28;785;-71
2022/04/16 00:20:10;;;;;;;365.92;163.00;;;;;;;14.30;57.53;99522.84;342884;28;2150;-71
2022/04/16 00:20:20;;;;;;;366.85;164.30;;;;;;;14.30;57.39;99526.34;341851;28;856;-73
2022/04/16 00:20:31;;;;;;;364.80;162.40;;;;;;;14.28;57.54;99528.25;340434;28;1182;-72
2022/04/16 00:20:41;;;;;;;364.67;162.77;;;;;;;14.29;57.38;99524.69;342931;28;1245;-71
2022/04/16 00:20:51;;;;;;;364.58;162.55;;;;;;;14.32;57.66;99529.72;343162;28;1628;-71
2022/04/16 00:21:04;;;;;;;368.00;166.57;;;;;;;14.34;57.51;99524.38;341974;28;1711;-71
2022/04/16 00:21:14;;;;;;;367.85;167.02;;;;;;;14.33;57.81;99525.31;342720;28;844;-72
2022/04/16 00:21:25;;;;;;;365.88;167.25;;;;;;;14.36;57.53;99522.50;342958;28;900;-72
2022/04/16 00:21:38;;;;;;;362.13;161.57;;;;;;;14.40;57.37;99523.19;341779;28;1204;-72
2022/04/16 00:21:48;;;;;;;362.22;161.22;;;;;;;14.42;57.56;99529.25;341891;28;1423;-72
2022/04/16 00:22:07;;;;;;;364.70;165.10;;;;;;;14.39;57.86;99524.97;343724;28;943;-72
2022/04/16 00:22:18;;;;;;;368.75;167.50;;;;;;;14.36;57.98;99524.28;344334;28;797;-71
2022/04/16 00:22:28;;;;;;;370.67;165.18;;;;;;;14.31;57.84;99517.50;345875;28;1476;-71
2022/04/16 00:22:39;;;;;;;369.33;164.50;;;;;;;14.33;57.88;99522.69;344417;28;1458;-71
2022/04/16 00:22:49;;;;;;;366.80;163.87;;;;;;;14.36;58.04;99530.41;344547;28;758;-71
2022/04/16 00:23:00;;;;;;;366.23;162.87;;;;;;;14.34;57.88;99527.00;343063;28;1255;-71
2022/04/16 00:23:10;;;;;;;364.20;160.65;;;;;;;14.35;58.14;99533.97;340810;28;901;-71
2022/04/16 00:23:21;;;;;;;366.30;161.50;;;;;;;14.35;58.07;99530.50;341772;28;754;-71
2022/04/16 00:23:31;;;;;;;364.73;162.40;;;;;;;14.33;57.94;99527.94;343332;28;873;-72
2022/04/16 00:23:42;;;;;;;366.43;163.43;;;;;;;14.27;58.30;99531.81;343093;28;1461;-72
2022/04/16 00:23:53;;;;;;;368.90;165.65;;;;;;;14.20;58.64;99530.47;341747;28;1466;-71
2022/04/16 00:24:04;;;;;;;367.57;165.80;;;;;;;14.20;58.63;99533.09;341509;28;1444;-71
2022/04/16 00:24:15;;;;;;;366.08;163.70;;;;;;;14.23;58.72;99538.19;343013;28;782;-71
2022/04/16 00:24:28;;;;;;;366.55;165.57;;;;;;;14.21;58.69;99532.16;342509;28;2565;-71
2022/04/16 00:24:40;;;;;;;366.77;163.05;;;;;;;14.18;58.95;99532.34;342885;28;829;-72
2022/04/16 00:24:51;;;;;;;364.98;160.90;;;;;;;14.19;58.94;99534.03;343052;28;1299;-71
2022/04/16 00:25:01;;;;;;;364.17;158.23;;;;;;;14.19;58.99;99539.28;343218;28;1122;-71
2022/04/16 00:25:13;;;;;;;366.13;159.05;;;;;;;14.20;58.90;99538.34;344328;28;731;-71
2022/04/16 00:25:24;;;;;;;366.73;161.63;;;;;;;14.21;58.89;99537.41;344283;28;931;-71
2022/04/16 00:25:34;;;;;;;368.47;165.73;;;;;;;14.20;58.43;99533.09;343179;28;1710;-71
2022/04/16 00:25:48;;;;;;;367.17;166.65;;;;;;;14.19;58.91;99539.28;341068;28;1622;-71
2022/04/16 00:25:58;;;;;;;369.67;168.40;;;;;;;14.20;58.92;99541.00;344484;28;998;-71
2022/04/16 00:26:11;;;;;;;370.07;169.87;;;;;;;14.17;58.95;99538.53;344435;28;1449;-71
2022/04/16 00:26:22;;;;;;;370.65;171.07;;;;;;;14.17;58.69;99535.91;344350;28;827;-71
2022/04/16 00:26:32;;;;;;;366.63;168.07;;;;;;;14.19;58.33;99544.56;343026;28;1188;-71
2022/04/16 00:26:43;;;;;;;368.27;168.83;;;;;;;14.20;58.71;99543.63;345410;28;1443;-71
2022/04/16 00:26:53;;;;;;;369.50;168.50;;;;;;;14.22;58.26;99541.75;345677;28;880;-71
2022/04/16 00:27:04;;;;;;;369.70;168.73;;;;;;;14.21;58.13;99541.84;345572;28;801;-71
2022/04/16 00:27:14;;;;;;;365.88;166.02;;;;;;;14.19;58.08;99539.28;345386;28;1203;-71
2022/04/16 00:27:25;;;;;;;361.23;162.88;;;;;;;14.22;58.13;99543.53;342899;28;838;-71
2022/04/16 00:27:35;;;;;;;365.57;165.00;;;;;;;14.19;58.19;99541.94;344399;28;1332;-71
2022/04/16 00:27:46;;;;;;;367.85;162.93;;;;;;;14.12;58.31;99545.84;344303;28;816;-71
2022/04/16 00:27:57;;;;;;;368.60;162.00;;;;;;;14.10;58.00;99547.69;344495;28;857;-71
2022/04/16 00:28:08;;;;;;;363.65;159.63;;;;;;;14.10;57.91;99546.84;344215;28;1284;-72
2022/04/16 00:28:19;;;;;;;362.83;159.73;;;;;;;14.12;58.13;99545.84;344095;28;1216;-71
2022/04/16 00:28:29;;;;;;;365.38;163.90;;;;;;;14.13;57.66;99549.31;341759;28;888;-72
2022/04/16 00:28:40;;;;;;;365.00;162.13;;;;;;;14.14;57.52;99546.59;345672;28;829;-72
2022/04/16 00:28:50;;;;;;;362.90;160.68;;;;;;;14.15;57.47;99540.41;345436;28;1864;-72
2022/04/16 00:29:01;;;;;;;360.93;158.23;;;;;;;14.18;56.92;99536.75;344592;28;815;-72
2022/04/16 00:29:12;;;;;;;363.30;162.18;;;;;;;14.16;57.19;99544.72;344533;28;808;-72
2022/04/16 00:29:23;;;;;;;364.83;165.93;;;;;;;14.16;56.83;99544.72;341501;28;1298;-72
2022/04/16 00:29:34;;;;;;;365.42;166.07;;;;;;;14.18;57.10;99542.00;344330;28;1300;-71
2022/04/16 00:29:44;;;;;;;364.35;164.68;;;;;;;14.21;56.97;99547.94;343117;28;825;-71
2022/04/16 00:29:55;;;;;;;361.70;161.00;;;;;;;14.23;56.95;99546.09;341854;28;1343;-71
2022/04/16 00:30:06;;;;;;;359.67;159.88;;;;;;;14.22;56.89;99538.28;345697;28;1756;-71
2022/04/16 00:30:17;;;;;;;364.00;161.15;;;;;;;14.23;56.88;99546.09;344413;28;884;-71
2022/04/16 00:30:27;;;;;;;364.05;161.70;;;;;;;14.24;57.18;99545.16;344606;28;848;-71
2022/04/16 00:30:39;;;;;;;365.23;162.20;;;;;;;14.27;56.94;99550.25;341029;28;1601;-71
2022/04/16 00:30:49;;;;;;;363.08;161.18;;;;;;;14.25;56.76;99540.72;341769;28;913;-73
2022/04/16 00:31:00;;;;;;;366.43;163.93;;;;;;;14.18;56.78;99548.13;340273;28;1369;-72
2022/04/16 00:31:11;;;;;;;366.43;163.90;;;;;;;14.18;56.65;99545.50;344260;28;1310;-72
2022/04/16 00:31:21;;;;;;;367.48;166.68;;;;;;;14.13;56.97;99544.91;344135;28;1458;-72
2022/04/16 00:31:32;;;;;;;365.53;166.10;;;;;;;14.10;56.87;99547.69;343304;28;901;-72
2022/04/16 00:31:45;;;;;;;366.87;166.53;;;;;;;14.05;57.11;99546.25;345484;28;1238;-72
2022/04/16 00:31:56;;;;;;;366.60;164.43;;;;;;;14.05;56.99;99547.09;344277;28;940;-73
2022/04/16 00:32:06;;;;;;;365.10;162.32;;;;;;;14.02;57.16;99539.38;341866;28;1621;-72
2022/04/16 00:32:19;;;;;;;364.80;161.83;;;;;;;14.05;57.18;99547.09;340148;28;1203;-72
2022/04/16 00:32:30;;;;;;;365.67;164.15;;;;;;;14.07;57.12;99547.03;344166;28;1393;-72
2022/04/16 00:32:40;;;;;;;366.88;163.18;;;;;;;14.09;57.17;99542.53;344032;28;1372;-71
2022/04/16 00:32:55;;;;;;;369.00;162.83;;;;;;;14.06;57.14;99538.28;340553;28;802;-71
2022/04/16 00:33:15;;;;;;;369.45;164.35;;;;;;;14.11;56.81;99540.66;341752;28;877;-71
2022/04/16 00:33:26;;;;;;;361.80;161.23;;;;;;;14.12;56.92;99545.84;343418;28;1701;-71
2022/04/16 00:33:37;;;;;;;362.80;160.82;;;;;;;14.09;56.99;99543.38;344003;28;846;-71
2022/04/16 00:33:48;;;;;;;361.48;158.93;;;;;;;14.10;56.87;99544.22;344279;28;832;-71
2022/04/16 00:33:58;;;;;;;361.67;160.45;;;;;;;14.05;56.92;99541.84;344464;28;852;-71
2022/04/16 00:34:08;;;;;;;363.27;161.53;;;;;;;14.02;57.36;99541.16;341912;28;1211;-71
2022/04/16 00:34:19;;;;;;;365.77;163.13;;;;;;;14.02;57.30;99544.66;339109;28;1225;-71
2022/04/16 00:34:30;;;;;;;366.88;163.77;;;;;;;14.04;57.24;99549.81;344179;28;1434;-71
2022/04/16 00:34:41;;;;;;;365.10;162.45;;;;;;;14.04;57.25;99549.81;344146;28;1333;-71
2022/04/16 00:34:51;;;;;;;363.87;161.83;;;;;;;14.04;57.43;99545.41;342951;28;884;-72
2022/04/16 00:35:02;;;;;;;360.02;159.93;;;;;;;14.04;57.23;99553.31;343136;28;1245;-72
2022/04/16 00:35:15;;;;;;;360.30;160.02;;;;;;;14.07;57.22;99544.41;345808;28;1416;-72
2022/04/16 00:35:26;;;;;;;360.98;160.23;;;;;;;14.09;57.22;99553.06;345187;28;1639;-72
2022/04/16 00:35:37;;;;;;;363.73;161.60;;;;;;;14.10;57.03;99550.34;344225;28;1353;-71
2022/04/16 00:35:47;;;;;;;365.30;162.43;;;;;;;14.06;57.16;99546.19;342810;28;1538;-72
2022/04/16 00:35:58;;;;;;;366.23;164.93;;;;;;;14.07;57.12;99549.66;343149;28;829;-72
2022/04/16 00:36:08;;;;;;;359.40;161.75;;;;;;;14.05;57.04;99541.84;344403;28;1335;-71
2022/04/16 00:36:19;;;;;;;360.37;161.90;;;;;;;14.03;56.97;99546.34;341703;28;805;-71
2022/04/16 00:36:30;;;;;;;362.10;162.38;;;;;;;14.07;57.00;99541.75;342770;28;1297;-71
2022/04/16 00:36:43;;;;;;;366.92;164.93;;;;;;;14.08;57.04;99546.94;345657;28;1502;-72
2022/04/16 00:36:53;;;;;;;362.40;161.27;;;;;;;14.06;56.92;99543.53;344525;28;2192;-72
2022/04/16 00:37:04;;;;;;;362.13;161.20;;;;;;;14.07;56.94;99544.41;345681;28;872;-72
2022/04/16 00:37:14;;;;;;;361.23;159.43;;;;;;;14.07;57.08;99549.66;344318;28;1066;-72
2022/04/16 00:37:25;;;;;;;361.17;160.67;;;;;;;14.01;56.85;99550.84;342836;28;758;-72
2022/04/16 00:37:35;;;;;;;359.45;158.73;;;;;;;13.96;57.31;99543.22;344181;28;1921;-72
2022/04/16 00:37:46;;;;;;;360.10;159.87;;;;;;;13.95;57.15;99540.66;344396;28;818;-73
2022/04/16 00:37:56;;;;;;;361.95;160.68;;;;;;;13.94;57.34;99538.97;342808;28;1207;-72
2022/04/16 00:38:06;;;;;;;361.33;160.57;;;;;;;13.97;57.43;99546.69;342985;28;731;-72
2022/04/16 00:38:17;;;;;;;361.27;159.83;;;;;;;13.99;57.12;99550.09;341675;28;932;-72
2022/04/16 00:38:27;;;;;;;364.80;161.43;;;;;;;13.97;57.42;99550.16;339014;29;1402;-72
2022/04/16 00:38:38;;;;;;;367.33;162.83;;;;;;;13.99;57.40;99552.72;342828;28;857;-72
2022/04/16 00:38:48;;;;;;;366.83;162.63;;;;;;;14.00;57.32;99549.16;342925;28;1183;-72
2022/04/16 00:38:59;;;;;;;363.35;161.48;;;;;;;14.05;57.34;99546.25;345796;28;848;-72
2022/04/16 00:39:09;;;;;;;360.97;159.47;;;;;;;14.05;57.19;99549.75;343109;28;892;-72
2022/04/16 00:39:20;;;;;;;361.20;159.18;;;;;;;14.06;57.14;99543.53;343085;28;1260;-72
2022/04/16 00:39:30;;;;;;;362.70;160.27;;;;;;;14.08;56.92;99552.19;341721;28;1705;-72
2022/04/16 00:39:40;;;;;;;366.57;164.40;;;;;;;14.10;57.12;99547.69;345458;28;1286;-72
2022/04/16 00:39:52;;;;;;;368.03;165.63;;;;;;;14.09;56.64;99543.38;346077;28;1450;-72
2022/04/16 00:40:03;;;;;;;363.33;163.10;;;;;;;14.11;56.92;99552.03;342948;28;1584;-72
2022/04/16 00:40:14;;;;;;;358.80;160.05;;;;;;;14.10;57.08;99545.06;345083;28;1753;-73
2022/04/16 00:40:24;;;;;;;357.02;159.77;;;;;;;14.08;57.04;99549.56;341585;28;833;-72
2022/04/16 00:40:34;;;;;;;357.13;161.00;;;;;;;14.06;56.63;99548.81;341573;28;1216;-72
2022/04/16 00:40:45;;;;;;;358.10;160.07;;;;;;;14.08;56.54;99557.47;341640;28;813;-72
2022/04/16 00:40:55;;;;;;;358.27;158.47;;;;;;;14.09;56.51;99553.91;344202;28;1113;-72
2022/04/16 00:41:06;;;;;;;360.75;158.35;;;;;;;14.09;56.50;99548.63;344362;28;809;-72
2022/04/16 00:41:16;;;;;;;362.23;160.63;;;;;;;14.11;56.49;99552.03;345695;28;1425;-72
2022/04/16 00:41:27;;;;;;;365.23;162.37;;;;;;;14.11;56.50;99554.66;342952;28;1193;-72
2022/04/16 00:41:39;;;;;;;363.93;161.93;;;;;;;14.11;56.09;99548.56;342792;28;1292;-72
2022/04/16 00:41:50;;;;;;;365.27;160.40;;;;;;;14.08;55.82;99552.19;341322;28;1684;-72
2022/04/16 00:42:00;;;;;;;363.77;159.03;;;;;;;14.06;56.21;99542.69;344287;28;1525;-72
2022/04/16 00:42:11;;;;;;;363.50;161.15;;;;;;;14.01;56.46;99540.31;345786;28;816;-72
2022/04/16 00:42:21;;;;;;;360.80;160.67;;;;;;;13.99;56.72;99545.66;344573;28;1787;-72
2022/04/16 00:42:39;;;;;;;359.30;158.13;;;;;;;13.99;56.31;99543.03;343041;28;1574;-72
2022/04/16 00:42:50;;;;;;;357.40;155.77;;;;;;;13.99;56.34;99544.81;343047;28;889;-72
2022/04/16 00:43:00;;;;;;;357.53;158.20;;;;;;;13.96;56.59;99550.25;344234;28;761;-72
2022/04/16 00:43:23;;;;;;;359.93;160.00;;;;;;;13.91;56.65;99545.25;342839;28;1158;-72
2022/04/16 00:43:33;;;;;;;359.70;154.68;;;;;;;13.91;56.22;99545.25;343062;28;900;-72
2022/04/16 00:43:44;;;;;;;358.73;155.73;;;;;;;13.87;56.60;99546.34;342915;28;760;-72
2022/04/16 00:43:54;;;;;;;361.15;158.77;;;;;;;13.86;56.58;99541.19;342798;28;849;-72
2022/04/16 00:44:05;;;;;;;359.50;157.95;;;;;;;13.85;56.40;99548.25;345437;28;1227;-73
2022/04/16 00:44:19;;;;;;;360.25;155.98;;;;;;;13.85;56.64;99545.63;342975;28;1368;-73
2022/04/16 00:44:29;;;;;;;358.67;152.25;;;;;;;13.86;56.66;99541.19;345457;28;1532;-72
2022/04/16 00:44:40;;;;;;;357.75;153.32;;;;;;;13.87;56.69;99537.59;344583;28;1479;-72
2022/04/16 00:44:50;;;;;;;358.90;155.83;;;;;;;13.89;56.50;99541.00;344535;28;865;-72
2022/04/16 00:45:00;;;;;;;359.80;158.80;;;;;;;13.89;56.70;99538.38;346127;28;1652;-72
2022/04/16 00:45:12;;;;;;;360.17;157.83;;;;;;;13.88;56.34;99541.94;344284;28;1302;-72
2022/04/16 00:45:22;;;;;;;359.75;158.30;;;;;;;13.91;56.22;99544.41;341643;28;1320;-72
2022/04/16 00:45:33;;;;;;;359.00;157.40;;;;;;;13.89;56.29;99546.25;341553;28;981;-72
2022/04/16 00:45:43;;;;;;;358.13;156.13;;;;;;;13.90;56.07;99547.97;342840;28;1541;-72
2022/04/16 00:45:54;;;;;;;356.97;154.57;;;;;;;13.87;56.03;99542.88;341618;28;860;-72
2022/04/16 00:46:04;;;;;;;357.40;154.50;;;;;;;13.87;56.14;99542.88;342936;28;920;-72
2022/04/16 00:46:15;;;;;;;357.67;155.87;;;;;;;13.83;55.92;99542.22;341673;28;735;-72
2022/04/16 00:46:25;;;;;;;358.20;154.65;;;;;;;13.85;55.92;99540.34;340355;28;837;-72
2022/04/16 00:46:36;;;;;;;357.87;154.20;;;;;;;13.86;55.95;99546.47;341806;28;727;-72
2022/04/16 00:46:47;;;;;;;359.83;154.23;;;;;;;13.89;55.86;99543.63;343725;28;1705;-72
2022/04/16 00:46:57;;;;;;;358.40;153.90;;;;;;;13.91;56.14;99544.41;344384;28;868;-72
2022/04/16 00:47:08;;;;;;;359.35;153.38;;;;;;;13.87;55.88;99537.59;342389;28;1350;-72
2022/04/16 00:47:18;;;;;;;358.37;153.57;;;;;;;13.90;55.85;99545.31;344623;28;816;-72
2022/04/16 00:47:29;;;;;;;358.80;155.38;;;;;;;13.90;55.68;99534.81;342633;28;1290;-73
2022/04/16 00:47:39;;;;;;;357.53;159.43;;;;;;;13.92;55.76;99541.69;341316;28;960;-72
2022/04/16 00:47:50;;;;;;;357.13;157.85;;;;;;;13.92;56.02;99541.69;344380;28;837;-72
2022/04/16 00:48:00;;;;;;;354.87;155.63;;;;;;;13.92;55.65;99541.69;342844;28;1478;-72
2022/04/16 00:48:11;;;;;;;356.00;151.85;;;;;;;13.94;55.95;99541.59;342678;28;1322;-72
2022/04/16 00:48:21;;;;;;;354.53;151.43;;;;;;;13.94;55.70;99544.22;345736;28;1275;-72
2022/04/16 00:48:32;;;;;;;355.27;153.13;;;;;;;13.94;55.89;99539.81;344257;28;758;-72
2022/04/16 00:48:42;;;;;;;357.07;156.03;;;;;;;13.95;55.78;99541.50;345783;28;1770;-72
2022/04/16 00:48:53;;;;;;;356.73;157.60;;;;;;;13.96;55.68;99545.00;341427;28;3003;-72
2022/04/16 00:49:04;;;;;;;356.95;155.70;;;;;;;13.97;55.86;99539.66;344464;28;1493;-72
2022/04/16 00:49:14;;;;;;;357.83;152.50;;;;;;;13.99;55.72;99539.56;344166;28;774;-72
2022/04/16 00:49:25;;;;;;;359.90;151.57;;;;;;;13.99;55.66;99539.56;345714;28;837;-72
2022/04/16 00:49:35;;;;;;;360.95;154.00;;;;;;;13.98;55.42;99551.00;341741;28;944;-72
2022/04/16 00:49:45;;;;;;;358.17;154.13;;;;;;;13.97;55.60;99544.06;343465;28;1715;-73
2022/04/16 00:49:56;;;;;;;358.53;156.00;;;;;;;13.97;55.37;99542.28;344437;28;837;-72
2022/04/16 00:50:10;;;;;;;357.92;155.18;;;;;;;13.99;55.43;99542.19;344339;28;1320;-72
2022/04/16 00:50:21;;;;;;;358.88;158.23;;;;;;;14.00;55.41;99543.88;340893;28;1634;-72
2022/04/16 00:50:32;;;;;;;358.48;160.32;;;;;;;14.01;55.54;99545.59;342684;28;1246;-72
2022/04/16 00:50:43;;;;;;;359.83;160.23;;;;;;;14.01;55.46;99545.59;344643;28;817;-72
2022/04/16 00:50:54;;;;;;;361.58;157.40;;;;;;;14.02;55.42;99544.66;344150;28;1611;-73
2022/04/16 00:51:05;;;;;;;360.85;153.57;;;;;;;14.03;55.57;99543.72;344468;28;1528;-72
2022/04/16 00:51:16;;;;;;;359.52;152.98;;;;;;;13.98;55.45;99545.75;344468;28;2316;-72